createdAt,value
2023-02-19T00:00:26.243Z,1.70
2023-02-19T00:02:58.821Z,1.50
2023-02-19T00:05:30.455Z,1.10
2023-02-19T00:08:01.545Z,1.30
2023-02-19T00:10:32.052Z,1.50
2023-02-19T00:13:02.441Z,1.60
2023-02-19T00:15:34.456Z,1.60
2023-02-19T00:18:08.448Z,2.00
2023-02-19T00:20:38.791Z,1.90
2023-02-19T00:23:09.108Z,1.80
2023-02-19T00:25:41.664Z,2.30
2023-02-19T00:28:12.743Z,1.80
2023-02-19T00:30:45.078Z,1.50
2023-02-19T00:33:16.709Z,1.40
2023-02-19T00:35:48.248Z,1.90
2023-02-19T00:38:19.285Z,1.90
2023-02-19T00:40:50.196Z,1.60
2023-02-19T00:43:24.258Z,1.80
2023-02-19T00:45:56.676Z,2.00
2023-02-19T00:48:27.455Z,2.10
2023-02-19T00:50:58.640Z,2.00
2023-02-19T00:53:29.185Z,2.40
2023-02-19T00:55:59.771Z,2.30
2023-02-19T00:58:30.162Z,2.10
2023-02-19T01:01:04.362Z,2.20
2023-02-19T01:03:38.582Z,2.40
2023-02-19T01:06:11.834Z,2.30
2023-02-19T01:08:43.142Z,2.00
2023-02-19T01:11:17.595Z,2.30
2023-02-19T01:13:48.462Z,1.60
2023-02-19T01:16:22.296Z,1.80
2023-02-19T01:18:55.417Z,1.60
2023-02-19T01:21:27.576Z,1.30
2023-02-19T01:23:59.081Z,1.60
2023-02-19T01:26:32.826Z,1.30
2023-02-19T01:29:03.699Z,1.60
2023-02-19T01:31:37.206Z,1.70
2023-02-19T01:34:11.227Z,1.50
2023-02-19T01:36:49.051Z,2.00
2023-02-19T01:39:20.382Z,2.00
2023-02-19T01:41:50.787Z,2.00
2023-02-19T01:44:56.434Z,1.80
2023-02-19T01:47:26.944Z,2.00
2023-02-19T01:49:59.398Z,2.30
2023-02-19T01:52:33.578Z,2.50
2023-02-19T01:55:11.092Z,2.60
2023-02-19T01:57:46.418Z,2.70
2023-02-19T02:00:23.581Z,2.70
2023-02-19T02:02:59.274Z,2.90
2023-02-19T02:05:44.955Z,3.50
2023-02-19T02:08:33.947Z,2.90
2023-02-19T02:11:05.088Z,3.50
2023-02-19T02:13:37.999Z,3.40
2023-02-19T02:16:23.271Z,3.60
2023-02-19T02:19:06.782Z,3.20
2023-02-19T02:22:00.293Z,2.60
2023-02-19T02:24:58.727Z,3.80
2023-02-19T02:27:44.204Z,3.30
2023-02-19T02:30:30.567Z,3.30
2023-02-19T02:33:09.135Z,3.30
2023-02-19T02:35:46.080Z,2.90
2023-02-19T02:38:19.504Z,3.10
2023-02-19T02:40:50.690Z,2.90
2023-02-19T02:43:22.050Z,2.90
2023-02-19T02:45:52.470Z,3.30
2023-02-19T02:48:40.988Z,2.80
2023-02-19T02:51:22.382Z,2.50
2023-02-19T02:54:24.007Z,2.40
2023-02-19T02:56:56.209Z,2.90
2023-02-19T02:59:29.851Z,3.60
2023-02-19T03:02:15.113Z,2.90
2023-02-19T03:05:11.907Z,3.40
2023-02-19T03:07:54.670Z,3.50
2023-02-19T03:10:32.675Z,3.80
2023-02-19T03:13:26.167Z,3.50
2023-02-19T03:16:15.269Z,3.20
2023-02-19T03:19:08.887Z,3.50
2023-02-19T03:21:43.150Z,3.20
2023-02-19T03:24:33.485Z,3.40
2023-02-19T03:27:08.674Z,3.10
2023-02-19T03:29:44.657Z,3.80
2023-02-19T03:32:20.824Z,3.50
2023-02-19T03:34:58.208Z,3.70
2023-02-19T03:37:33.729Z,3.80
2023-02-19T03:40:04.749Z,3.90
2023-02-19T03:42:43.152Z,3.70
2023-02-19T03:45:37.476Z,3.80
2023-02-19T03:48:25.486Z,4.20
2023-02-19T03:51:05.377Z,3.80
2023-02-19T03:53:46.233Z,3.80
2023-02-19T03:56:26.711Z,5.20
2023-02-19T03:59:02.490Z,5.30
2023-02-19T04:01:42.625Z,4.60
2023-02-19T04:04:21.229Z,5.00
2023-02-19T04:06:55.469Z,5.00
2023-02-19T04:09:32.312Z,4.10
2023-02-19T04:12:09.444Z,4.30
2023-02-19T04:14:44.691Z,5.00
2023-02-19T04:17:21.086Z,4.30
2023-02-19T04:19:54.726Z,4.60
2023-02-19T04:22:26.797Z,4.50
2023-02-19T04:24:57.678Z,4.30
2023-02-19T04:27:33.830Z,3.80
2023-02-19T04:30:04.613Z,3.60
2023-02-19T04:32:38.493Z,3.90
2023-02-19T04:35:09.816Z,4.40
2023-02-19T04:37:40.099Z,5.00
2023-02-19T04:40:12.342Z,4.40
2023-02-19T04:42:43.711Z,4.80
2023-02-19T04:45:16.813Z,4.30
2023-02-19T04:47:47.181Z,6.30
2023-02-19T04:50:17.792Z,5.80
2023-02-19T04:52:48.136Z,5.70
2023-02-19T04:55:19.522Z,5.30
2023-02-19T04:57:49.874Z,5.50
2023-02-19T05:00:22.765Z,5.50
2023-02-19T05:02:55.367Z,5.80
2023-02-19T05:05:26.837Z,5.60
2023-02-19T05:07:57.195Z,5.80
2023-02-19T05:10:27.729Z,5.00
2023-02-19T05:12:58.879Z,5.00
2023-02-19T05:15:30.381Z,5.70
2023-02-19T05:18:01.966Z,5.70
2023-02-19T05:20:32.410Z,5.40
2023-02-19T05:23:02.799Z,5.30
2023-02-19T05:25:33.886Z,5.90
2023-02-19T05:28:17.849Z,5.40
2023-02-19T05:30:50.491Z,5.50
2023-02-19T05:33:23.649Z,5.10
2023-02-19T05:35:56.006Z,4.10
2023-02-19T05:38:26.863Z,4.70
2023-02-19T05:41:04.694Z,5.20
2023-02-19T05:43:38.061Z,4.70
2023-02-19T05:46:11.724Z,4.60
2023-02-19T05:48:45.156Z,4.60
2023-02-19T05:51:16.882Z,4.20
2023-02-19T05:53:51.365Z,4.70
2023-02-19T05:56:28.950Z,3.60
2023-02-19T05:59:00.131Z,4.20
2023-02-19T06:01:31.555Z,3.40
2023-02-19T06:04:02.282Z,3.60
2023-02-19T06:06:32.654Z,3.30
2023-02-19T06:09:05.124Z,3.90
2023-02-19T06:11:35.739Z,4.10
2023-02-19T06:14:06.532Z,3.90
2023-02-19T06:16:36.901Z,3.10
2023-02-19T06:19:07.337Z,4.00
2023-02-19T06:21:37.837Z,3.60
2023-02-19T06:24:10.078Z,4.00
2023-02-19T06:26:41.551Z,3.90
2023-02-19T06:29:12.036Z,3.50
2023-02-19T06:31:43.013Z,3.50
2023-02-19T06:34:13.862Z,3.40
2023-02-19T06:36:44.657Z,2.80
2023-02-19T06:39:15.076Z,3.20
2023-02-19T06:41:45.570Z,3.30
2023-02-19T06:44:15.974Z,3.50
2023-02-19T06:46:46.762Z,3.00
2023-02-19T06:49:17.517Z,3.20
2023-02-19T06:51:47.863Z,2.60
2023-02-19T06:54:19.795Z,2.70
2023-02-19T06:56:51.683Z,2.50
2023-02-19T06:59:22.154Z,3.10
2023-02-19T07:01:54.932Z,2.50
2023-02-19T07:04:27.062Z,2.90
2023-02-19T07:07:02.021Z,2.50
2023-02-19T07:09:34.592Z,2.40
2023-02-19T07:12:05.246Z,2.10
2023-02-19T07:14:37.613Z,2.50
2023-02-19T07:17:07.977Z,2.40
2023-02-19T07:19:38.388Z,3.10
2023-02-19T07:22:16.083Z,2.70
2023-02-19T07:24:48.635Z,2.70
2023-02-19T07:27:19.103Z,2.60
2023-02-19T07:29:50.869Z,1.80
2023-02-19T07:32:21.237Z,2.20
2023-02-19T07:34:51.613Z,2.20
2023-02-19T07:37:22.165Z,1.70
2023-02-19T07:39:54.311Z,1.70
2023-02-19T07:42:25.097Z,1.80
2023-02-19T07:44:58.445Z,1.70
2023-02-19T07:47:31.450Z,1.60
2023-02-19T07:50:01.860Z,1.90
2023-02-19T07:52:52.325Z,2.00
2023-02-19T07:55:31.044Z,1.80
2023-02-19T07:58:04.745Z,1.60
2023-02-19T08:00:36.267Z,2.40
2023-02-19T08:03:07.085Z,1.30
2023-02-19T08:05:41.390Z,1.30
2023-02-19T08:08:14.249Z,1.10
2023-02-19T08:11:02.530Z,0.90
2023-02-19T08:13:34.241Z,0.90
2023-02-19T08:16:24.387Z,1.20
2023-02-19T08:19:05.010Z,1.20
2023-02-19T08:21:36.248Z,0.80
2023-02-19T08:24:09.326Z,1.00
2023-02-19T08:26:44.559Z,0.70
2023-02-19T08:29:15.015Z,0.80
2023-02-19T08:31:48.155Z,0.80
2023-02-19T08:34:18.830Z,1.00
2023-02-19T08:36:53.123Z,1.20
2023-02-19T08:39:24.673Z,1.00
2023-02-19T08:41:55.402Z,0.90
2023-02-19T08:44:26.785Z,1.00
2023-02-19T08:46:59.514Z,1.10
2023-02-19T08:49:33.778Z,1.00
2023-02-19T08:52:07.730Z,1.30
2023-02-19T08:54:46.748Z,1.20
2023-02-19T08:57:17.746Z,1.60
2023-02-19T08:59:52.341Z,1.40
2023-02-19T09:02:27.300Z,1.60
2023-02-19T09:04:58.498Z,1.40
2023-02-19T09:07:29.206Z,1.00
2023-02-19T09:09:59.758Z,1.20
2023-02-19T09:12:30.089Z,1.40
2023-02-19T09:15:00.669Z,1.30
2023-02-19T09:17:31.180Z,1.20
2023-02-19T09:20:01.639Z,1.30
2023-02-19T09:22:32.393Z,1.20
2023-02-19T09:25:02.930Z,1.50
2023-02-19T09:27:33.737Z,1.70
2023-02-19T09:30:04.778Z,1.50
2023-02-19T09:32:35.514Z,1.90
2023-02-19T09:35:06.348Z,1.70
2023-02-19T09:37:37.036Z,1.70
2023-02-19T09:42:53.650Z,1.50
2023-02-19T09:45:29.867Z,1.40
2023-02-19T09:48:00.772Z,1.50
2023-02-19T09:50:38.461Z,1.60
2023-02-19T09:53:16.854Z,1.40
2023-02-19T09:55:47.834Z,1.50
2023-02-19T09:58:27.386Z,1.50
2023-02-19T10:01:01.300Z,1.30
2023-02-19T10:03:35.463Z,1.30
2023-02-19T10:06:16.662Z,1.00
2023-02-19T10:08:48.944Z,1.20
2023-02-19T10:11:20.559Z,1.20
2023-02-19T10:14:02.980Z,1.10
2023-02-19T10:16:37.400Z,1.10
2023-02-19T10:19:10.512Z,1.00
2023-02-19T10:21:41.341Z,1.10
2023-02-19T10:24:19.672Z,1.10
2023-02-19T10:26:50.783Z,1.10
2023-02-19T10:29:29.418Z,1.20
2023-02-19T10:32:21.157Z,1.10
2023-02-19T10:35:10.329Z,1.10
2023-02-19T10:37:47.266Z,1.40
2023-02-19T10:40:24.015Z,0.70
2023-02-19T10:42:58.921Z,0.90
2023-02-19T10:45:35.158Z,1.00
2023-02-19T10:48:09.788Z,1.00
2023-02-19T10:50:44.962Z,0.70
2023-02-19T10:53:26.637Z,1.10
2023-02-19T10:56:10.202Z,1.10
2023-02-19T10:58:42.493Z,1.10
2023-02-19T11:01:22.266Z,0.90
2023-02-19T11:03:54.577Z,0.90
2023-02-19T11:06:29.556Z,1.10
2023-02-19T11:09:01.787Z,0.80
2023-02-19T11:11:35.174Z,0.70
2023-02-19T11:14:15.214Z,1.00
2023-02-19T11:16:49.033Z,0.90
2023-02-19T11:19:43.590Z,0.80
2023-02-19T11:22:33.142Z,1.20
2023-02-19T11:25:09.196Z,0.90
2023-02-19T11:27:56.617Z,0.70
2023-02-19T11:30:41.186Z,0.80
2023-02-19T11:33:44.279Z,1.20
2023-02-19T11:36:33.539Z,1.50
2023-02-19T11:39:20.645Z,1.30
2023-02-19T11:42:17.491Z,1.60
2023-02-19T11:45:01.956Z,1.50
2023-02-19T11:48:14.188Z,1.00
2023-02-19T11:50:54.161Z,1.30
2023-02-19T11:53:29.369Z,1.30
2023-02-19T11:56:21.894Z,0.90
2023-02-19T11:59:14.031Z,1.00
2023-02-19T12:02:16.687Z,1.20
2023-02-19T12:05:01.694Z,1.20
2023-02-19T12:08:05.889Z,1.30
2023-02-19T12:10:52.438Z,1.40
2023-02-19T12:13:32.919Z,1.00
2023-02-19T12:16:21.281Z,1.20
2023-02-19T12:19:10.228Z,1.50
2023-02-19T12:21:56.418Z,1.50
2023-02-19T12:24:43.682Z,1.50
2023-02-19T12:27:28.045Z,1.50
2023-02-19T12:30:17.200Z,1.30
2023-02-19T12:33:15.225Z,1.20
2023-02-19T12:36:04.719Z,1.00
2023-02-19T12:38:44.243Z,1.00
2023-02-19T12:41:35.644Z,1.10
2023-02-19T12:44:14.750Z,0.90
2023-02-19T12:46:51.586Z,1.00
2023-02-19T12:49:27.519Z,1.10
2023-02-19T12:52:01.545Z,0.80
2023-02-19T12:55:06.943Z,0.80
2023-02-19T12:57:49.486Z,0.90
2023-02-19T13:00:32.477Z,0.90
2023-02-19T13:03:09.016Z,0.90
2023-02-19T13:05:48.077Z,0.80
2023-02-19T13:08:25.856Z,0.70
2023-02-19T13:11:03.763Z,0.90
2023-02-19T13:13:42.014Z,1.30
2023-02-19T13:16:21.886Z,1.10
2023-02-19T13:19:02.884Z,1.00
2023-02-19T13:22:03.268Z,1.10
2023-02-19T13:24:42.341Z,1.00
2023-02-19T13:27:50.544Z,0.90
2023-02-19T13:30:56.229Z,0.90
2023-02-19T13:33:42.231Z,0.80
2023-02-19T13:36:28.476Z,1.00
2023-02-19T13:39:09.959Z,0.80
2023-02-19T13:42:00.252Z,1.10
2023-02-19T13:44:34.666Z,0.80
2023-02-19T13:47:30.360Z,1.00
2023-02-19T13:50:12.343Z,0.90
2023-02-19T13:52:57.974Z,1.30
2023-02-19T13:55:51.961Z,1.20
2023-02-19T13:58:53.149Z,0.90
2023-02-19T14:02:24.049Z,1.20
2023-02-19T14:05:46.956Z,1.10
2023-02-19T14:12:15.706Z,1.40
2023-02-19T14:16:19.833Z,1.10
2023-02-19T14:18:57.015Z,1.30
2023-02-19T14:21:39.332Z,1.10
2023-02-19T14:24:17.949Z,1.10
2023-02-19T14:30:27.096Z,1.00
2023-02-19T14:33:11.069Z,1.00
2023-02-19T14:36:10.800Z,1.30
2023-02-19T14:42:53.112Z,0.90
2023-02-19T14:46:12.613Z,0.90
2023-02-19T14:49:36.780Z,1.20
2023-02-19T14:52:57.795Z,0.90
2023-02-19T15:00:02.561Z,1.00
2023-02-19T15:07:17.524Z,1.00
2023-02-19T15:22:51.173Z,1.00
2023-02-19T15:26:15.791Z,1.40
2023-02-19T15:29:33.260Z,1.10
2023-02-19T15:32:36.016Z,1.10
2023-02-19T15:35:28.002Z,1.30
2023-02-19T15:38:12.552Z,0.90
2023-02-19T15:40:49.558Z,1.30
2023-02-19T15:43:58.369Z,0.90
2023-02-19T15:46:48.924Z,1.00
2023-02-19T15:49:31.129Z,1.60
2023-02-19T15:52:17.867Z,1.30
2023-02-19T15:55:15.476Z,1.00
2023-02-19T15:57:55.844Z,0.90
2023-02-19T16:00:53.773Z,0.90
2023-02-19T16:03:42.031Z,1.00
2023-02-19T16:06:29.187Z,1.00
2023-02-19T16:09:10.461Z,0.90
2023-02-19T16:11:49.809Z,0.90
2023-02-19T16:14:29.392Z,1.30
2023-02-19T16:17:07.459Z,1.60
2023-02-19T16:19:49.381Z,0.90
2023-02-19T16:22:22.480Z,0.80
2023-02-19T16:24:57.274Z,1.00
2023-02-19T16:27:35.650Z,1.20
2023-02-19T16:30:30.863Z,1.20
2023-02-19T16:36:41.820Z,1.00
2023-02-19T16:39:28.986Z,1.10
2023-02-19T16:42:25.126Z,1.20
2023-02-19T16:45:58.470Z,1.20
2023-02-19T16:49:11.226Z,1.10
2023-02-19T16:52:23.042Z,1.20
2023-02-19T16:54:56.575Z,1.10
2023-02-19T16:57:53.546Z,1.20
2023-02-19T17:00:38.919Z,1.10
2023-02-19T17:03:13.127Z,1.10
2023-02-19T17:05:44.058Z,1.20
2023-02-19T17:08:31.407Z,1.20
2023-02-19T17:11:03.087Z,1.20
2023-02-19T17:13:33.904Z,1.20
2023-02-19T17:16:04.724Z,1.30
2023-02-19T17:18:45.604Z,1.20
2023-02-19T17:21:21.031Z,1.30
2023-02-19T17:23:52.119Z,1.50
2023-02-19T17:26:25.440Z,1.30
2023-02-19T17:28:58.207Z,1.60
2023-02-19T17:31:29.250Z,1.60
2023-02-19T17:34:00.310Z,1.70
2023-02-19T17:36:32.920Z,1.90
2023-02-19T17:39:14.678Z,1.90
2023-02-19T17:41:45.316Z,1.60
2023-02-19T17:44:17.724Z,1.60
2023-02-19T17:46:49.806Z,2.10
2023-02-19T17:49:20.342Z,1.80
2023-02-19T17:51:50.853Z,2.40
2023-02-19T17:54:21.192Z,2.10
2023-02-19T17:56:51.555Z,1.80
2023-02-19T17:59:22.025Z,1.60
2023-02-19T18:01:54.934Z,1.60
2023-02-19T18:04:27.856Z,2.20
2023-02-19T18:06:58.500Z,2.10
2023-02-19T18:09:29.008Z,1.60
2023-02-19T18:11:59.329Z,1.80
2023-02-19T18:14:31.405Z,1.90
2023-02-19T18:17:02.620Z,1.80
2023-02-19T18:19:33.025Z,1.90
2023-02-19T18:22:06.660Z,1.90
2023-02-19T18:24:38.808Z,1.70
2023-02-19T18:27:09.407Z,1.70
2023-02-19T18:29:39.842Z,1.80
2023-02-19T18:32:10.477Z,1.80
2023-02-19T18:34:40.961Z,1.80
2023-02-19T18:37:11.309Z,1.90
2023-02-19T18:39:41.716Z,1.70
2023-02-19T18:42:12.641Z,2.00
2023-02-19T18:44:43.611Z,2.50
2023-02-19T18:47:14.182Z,2.00
2023-02-19T18:49:47.948Z,2.00
2023-02-19T18:52:20.359Z,1.90
2023-02-19T18:54:52.378Z,2.20
2023-02-19T18:57:24.232Z,2.00
2023-02-19T18:59:55.031Z,3.00
2023-02-19T19:02:29.741Z,3.00
2023-02-19T19:05:02.378Z,2.30
2023-02-19T19:07:32.895Z,3.00
2023-02-19T19:10:03.230Z,2.70
2023-02-19T19:12:33.592Z,2.60
2023-02-19T19:15:04.206Z,2.90
2023-02-19T19:17:35.057Z,2.80
2023-02-19T19:20:06.649Z,2.50
2023-02-19T19:22:37.123Z,2.80
2023-02-19T19:25:09.261Z,2.40
2023-02-19T19:27:39.681Z,2.20
2023-02-19T19:30:11.544Z,2.40
2023-02-19T19:32:42.223Z,2.50
2023-02-19T19:35:13.133Z,2.40
2023-02-19T19:37:43.657Z,2.20
2023-02-19T19:40:16.692Z,2.40
2023-02-19T19:42:47.888Z,2.60
2023-02-19T19:45:21.458Z,3.00
2023-02-19T19:47:53.103Z,2.10
2023-02-19T19:50:23.582Z,2.00
2023-02-19T19:52:54.819Z,2.10
2023-02-19T19:55:27.491Z,2.80
2023-02-19T19:57:57.827Z,3.20
2023-02-19T20:00:29.498Z,2.50
2023-02-19T20:03:02.869Z,2.80
2023-02-19T20:05:33.987Z,2.60
2023-02-19T20:08:04.736Z,3.60
2023-02-19T20:10:38.881Z,3.20
2023-02-19T20:13:09.801Z,3.40
2023-02-19T20:15:40.503Z,3.20
2023-02-19T20:18:11.037Z,3.60
2023-02-19T20:20:41.908Z,3.20
2023-02-19T20:23:15.253Z,3.40
2023-02-19T20:25:46.011Z,3.50
2023-02-19T20:28:16.581Z,3.80
2023-02-19T20:30:46.928Z,3.80
2023-02-19T20:33:17.602Z,3.80
2023-02-19T20:35:47.960Z,3.50
2023-02-19T20:38:18.689Z,4.50
2023-02-19T20:40:49.366Z,4.10
2023-02-19T20:43:21.095Z,3.70
2023-02-19T20:45:51.489Z,3.70
2023-02-19T20:48:23.132Z,3.40
2023-02-19T20:50:59.270Z,3.10
2023-02-19T20:53:32.055Z,3.00
2023-02-19T20:56:02.528Z,3.30
2023-02-19T20:58:32.843Z,3.20
2023-02-19T21:01:03.238Z,3.00
2023-02-19T21:03:35.336Z,3.20
2023-02-19T21:06:05.990Z,3.30
2023-02-19T21:08:38.566Z,2.90
2023-02-19T21:11:09.330Z,2.80
2023-02-19T21:13:39.978Z,2.80
2023-02-19T21:16:11.294Z,3.00
2023-02-19T21:18:41.941Z,2.90
2023-02-19T21:21:12.349Z,3.10
2023-02-19T21:23:43.431Z,3.10
2023-02-19T21:26:14.471Z,3.20
2023-02-19T21:28:45.050Z,2.90
2023-02-19T21:31:15.482Z,3.00
2023-02-19T21:33:46.409Z,2.90
2023-02-19T21:36:19.151Z,2.80
2023-02-19T21:38:50.055Z,2.70
2023-02-19T21:41:20.516Z,2.20
2023-02-19T21:43:50.898Z,2.60
2023-02-19T21:46:22.150Z,2.00
2023-02-19T21:48:54.958Z,2.10
2023-02-19T21:51:37.972Z,3.40
2023-02-19T21:54:12.294Z,2.40
2023-02-19T21:56:42.722Z,2.50
2023-02-19T21:59:13.245Z,2.60
2023-02-19T22:01:44.600Z,2.50
2023-02-19T22:04:16.738Z,2.20
2023-02-19T22:06:47.638Z,2.40
2023-02-19T22:09:20.667Z,2.40
2023-02-19T22:11:51.304Z,2.10
2023-02-19T22:14:21.922Z,2.40
2023-02-19T22:16:52.802Z,2.90
2023-02-19T22:19:23.242Z,3.00
2023-02-19T22:21:53.621Z,3.50
2023-02-19T22:24:24.342Z,3.20
2023-02-19T22:26:58.557Z,2.60
2023-02-19T22:29:31.238Z,2.50
2023-02-19T22:32:01.797Z,3.40
2023-02-19T22:34:32.427Z,2.40
2023-02-19T22:37:02.829Z,2.60
2023-02-19T22:39:34.299Z,2.70
2023-02-19T22:42:05.137Z,2.80
2023-02-19T22:44:37.834Z,2.10
2023-02-19T22:47:10.311Z,2.40
2023-02-19T22:49:43.848Z,2.10
2023-02-19T22:52:17.804Z,2.40
2023-02-19T22:54:48.257Z,2.50
2023-02-19T22:57:19.146Z,2.40
2023-02-19T22:59:49.540Z,2.20
2023-02-19T23:02:20.365Z,2.30
2023-02-19T23:04:51.049Z,2.30
2023-02-19T23:07:21.488Z,2.30
2023-02-19T23:09:51.991Z,2.10
2023-02-19T23:12:22.742Z,2.80
2023-02-19T23:14:55.182Z,2.20
2023-02-19T23:17:25.754Z,2.80
2023-02-19T23:19:56.606Z,1.80
2023-02-19T23:22:27.478Z,2.40
2023-02-19T23:24:59.572Z,2.50
2023-02-19T23:27:30.279Z,2.40
2023-02-19T23:30:00.791Z,2.30
2023-02-19T23:32:31.121Z,2.70
2023-02-19T23:35:01.538Z,2.70
2023-02-19T23:37:32.143Z,2.50
2023-02-19T23:40:02.800Z,2.20
2023-02-19T23:42:33.542Z,2.60
2023-02-19T23:45:04.554Z,3.00
2023-02-19T23:47:34.988Z,2.80
2023-02-19T23:50:05.775Z,2.80
2023-02-19T23:52:36.603Z,2.90
2023-02-19T23:55:08.338Z,3.40
2023-02-19T23:57:38.663Z,3.20
